createdAt,value
2023-10-11T00:01:30.318Z,8.05
2023-10-11T00:04:02.451Z,7.70
2023-10-11T00:06:33.244Z,7.57
2023-10-11T00:08:59.685Z,7.90
2023-10-11T00:11:28.717Z,8.25
2023-10-11T00:13:55.431Z,8.32
2023-10-11T00:16:22.458Z,8.10
2023-10-11T00:18:52.538Z,8.27
2023-10-11T00:21:19.292Z,8.00
2023-10-11T00:23:46.805Z,8.80
2023-10-11T00:26:15.703Z,8.30
2023-10-11T00:28:42.380Z,8.77
2023-10-11T00:31:19.060Z,8.88
2023-10-11T00:33:46.212Z,9.00
2023-10-11T00:36:12.679Z,8.63
2023-10-11T00:38:48.423Z,8.90
2023-10-11T00:41:19.902Z,8.90
2023-10-11T00:43:50.697Z,8.50
2023-10-11T00:46:19.719Z,8.63
2023-10-11T00:48:55.781Z,8.95
2023-10-11T00:51:24.819Z,8.85
2023-10-11T00:53:51.468Z,8.70
2023-10-11T00:56:19.680Z,9.82
2023-10-11T00:58:46.026Z,9.23
2023-10-11T01:01:12.592Z,9.23
2023-10-11T01:03:39.124Z,9.35
2023-10-11T01:06:06.437Z,9.35
2023-10-11T01:08:39.614Z,9.10
2023-10-11T01:11:13.069Z,10.52
2023-10-11T01:13:43.546Z,9.90
2023-10-11T01:16:15.373Z,9.57
2023-10-11T01:18:43.804Z,9.77
2023-10-11T01:21:10.634Z,10.02
2023-10-11T01:23:37.185Z,9.57
2023-10-11T01:26:09.569Z,9.40
2023-10-11T01:28:36.478Z,10.18
2023-10-11T01:31:12.610Z,10.07
2023-10-11T01:33:43.324Z,9.73
2023-10-11T01:36:11.007Z,10.10
2023-10-11T01:38:49.294Z,10.40
2023-10-11T01:41:16.968Z,10.05
2023-10-11T01:43:46.978Z,10.27
2023-10-11T01:46:14.744Z,10.57
2023-10-11T01:48:41.395Z,9.75
2023-10-11T01:51:10.060Z,9.82
2023-10-11T01:53:39.356Z,10.65
2023-10-11T01:56:06.304Z,10.38
2023-10-11T01:58:32.621Z,10.05
2023-10-11T02:00:58.974Z,10.02
2023-10-11T02:03:25.734Z,10.70
2023-10-11T02:05:52.229Z,9.88
2023-10-11T02:08:18.724Z,10.80
2023-10-11T02:10:45.723Z,10.27
2023-10-11T02:13:12.820Z,9.73
2023-10-11T02:15:41.132Z,9.50
2023-10-11T02:18:11.774Z,9.95
2023-10-11T02:23:12.796Z,11.45
2023-10-11T02:25:39.567Z,10.82
2023-10-11T02:28:10.345Z,10.70
2023-10-11T02:30:39.405Z,10.68
2023-10-11T02:33:08.909Z,11.10
2023-10-11T02:35:53.132Z,10.80
2023-10-11T02:38:23.712Z,11.70
2023-10-11T02:40:56.995Z,10.25
2023-10-11T02:43:23.938Z,10.63
2023-10-11T02:45:51.167Z,11.00
2023-10-11T02:48:20.585Z,11.32
2023-10-11T02:50:47.837Z,10.65
2023-10-11T02:53:23.800Z,11.45
2023-10-11T02:55:58.748Z,10.75
2023-10-11T02:58:30.753Z,10.60
2023-10-11T03:01:12.219Z,10.75
2023-10-11T03:03:45.871Z,11.38
2023-10-11T03:06:12.269Z,11.07
2023-10-11T03:08:38.942Z,11.43
2023-10-11T03:11:10.131Z,11.45
2023-10-11T03:13:45.510Z,11.43
2023-10-11T03:16:18.122Z,11.43
2023-10-11T03:18:47.543Z,11.45
2023-10-11T03:21:21.276Z,11.90
2023-10-11T03:23:49.183Z,11.52
2023-10-11T03:26:23.793Z,11.75
2023-10-11T03:29:00.954Z,12.27
2023-10-11T03:31:34.296Z,11.13
2023-10-11T03:34:01.898Z,11.13
2023-10-11T03:36:35.978Z,11.10
2023-10-11T03:39:10.456Z,11.77
2023-10-11T03:41:37.614Z,11.55
2023-10-11T03:44:12.860Z,10.45
2023-10-11T03:46:40.369Z,11.98
2023-10-11T03:49:18.865Z,12.15
2023-10-11T03:51:47.776Z,12.32
2023-10-11T03:54:23.206Z,11.70
2023-10-11T03:56:56.992Z,12.13
2023-10-11T03:59:26.796Z,11.95
2023-10-11T04:01:53.568Z,11.73
2023-10-11T04:04:22.104Z,11.63
2023-10-11T04:07:06.524Z,12.20
2023-10-11T04:09:34.148Z,12.57
2023-10-11T04:12:01.849Z,11.80
2023-10-11T04:14:46.807Z,11.85
2023-10-11T04:17:22.876Z,12.18
2023-10-11T04:20:19.038Z,12.35
2023-10-11T04:23:02.581Z,12.15
2023-10-11T04:25:33.807Z,11.80
2023-10-11T04:28:03.536Z,12.35
2023-10-11T04:30:42.849Z,11.98
2023-10-11T04:33:24.655Z,12.30
2023-10-11T04:35:57.276Z,13.40
2023-10-11T04:38:23.712Z,13.45
2023-10-11T04:40:53.314Z,13.32
2023-10-11T04:43:25.455Z,13.20
2023-10-11T04:45:57.390Z,13.05
2023-10-11T04:48:31.154Z,13.57
2023-10-11T04:51:05.457Z,14.05
2023-10-11T04:53:52.923Z,14.20
2023-10-11T04:56:41.477Z,13.00
2023-10-11T04:59:07.816Z,13.05
2023-10-11T05:01:49.642Z,13.98
2023-10-11T05:04:17.213Z,14.10
2023-10-11T05:06:45.167Z,14.50
2023-10-11T05:09:14.963Z,13.30
2023-10-11T05:11:45.596Z,13.53
2023-10-11T05:14:29.896Z,14.70
2023-10-11T05:17:19.802Z,13.43
2023-10-11T05:19:47.580Z,14.05
2023-10-11T05:22:24.417Z,14.63
2023-10-11T05:25:02.997Z,13.68
2023-10-11T05:27:36.512Z,13.98
2023-10-11T05:30:07.200Z,14.02
2023-10-11T05:32:34.115Z,13.48
2023-10-11T05:35:16.168Z,14.30
2023-10-11T05:38:01.672Z,14.63
2023-10-11T05:40:46.435Z,14.55
2023-10-11T05:43:31.444Z,14.90
2023-10-11T05:46:16.239Z,14.63
2023-10-11T05:49:01.102Z,15.00
2023-10-11T05:51:30.265Z,14.48
2023-10-11T05:53:57.527Z,14.55
2023-10-11T05:56:23.835Z,14.35
2023-10-11T05:58:54.110Z,14.82
2023-10-11T06:01:22.413Z,13.85
2023-10-11T06:03:52.682Z,13.82
2023-10-11T06:06:27.431Z,15.32
2023-10-11T06:08:58.785Z,12.77
2023-10-11T06:11:30.397Z,14.68
2023-10-11T06:13:57.054Z,14.50
2023-10-11T06:16:23.623Z,14.43
2023-10-11T06:19:17.118Z,14.70
2023-10-11T06:22:00.248Z,14.05
2023-10-11T06:24:38.009Z,14.48
2023-10-11T06:27:14.090Z,15.57
2023-10-11T06:29:46.383Z,14.60
2023-10-11T06:32:19.895Z,13.77
2023-10-11T06:34:48.731Z,14.48
2023-10-11T06:37:19.391Z,15.20
2023-10-11T06:39:46.571Z,15.30
2023-10-11T06:42:14.292Z,15.00
2023-10-11T06:44:41.710Z,14.77
2023-10-11T06:47:12.062Z,14.55
2023-10-11T06:49:45.369Z,15.52
2023-10-11T06:52:18.566Z,14.98
2023-10-11T06:54:48.884Z,15.15
2023-10-11T06:57:21.052Z,14.52
2023-10-11T06:59:58.178Z,15.68
2023-10-11T07:02:33.472Z,15.25
2023-10-11T07:05:06.407Z,15.38
2023-10-11T07:07:33.885Z,16.02
2023-10-11T07:10:03.011Z,15.98
2023-10-11T07:12:29.652Z,15.70
2023-10-11T07:14:59.132Z,15.32
2023-10-11T07:17:26.712Z,15.65
2023-10-11T07:19:53.097Z,16.30
2023-10-11T07:22:27.103Z,15.93
2023-10-11T07:24:57.114Z,16.38
2023-10-11T07:27:39.030Z,15.63
2023-10-11T07:30:07.958Z,15.38
2023-10-11T07:32:37.751Z,16.02
2023-10-11T07:35:11.059Z,16.63
2023-10-11T07:37:40.508Z,17.00
2023-10-11T07:40:12.108Z,16.35
2023-10-11T07:42:38.861Z,15.85
2023-10-11T07:45:09.704Z,15.50
2023-10-11T07:47:36.224Z,16.48
2023-10-11T07:50:02.592Z,17.23
2023-10-11T07:52:30.043Z,17.02
2023-10-11T07:54:59.712Z,16.25
2023-10-11T07:57:28.215Z,16.58
2023-10-11T07:59:54.686Z,17.52
2023-10-11T08:02:43.132Z,17.90
2023-10-11T08:05:15.055Z,16.83
2023-10-11T08:07:41.974Z,17.33
2023-10-11T08:10:28.612Z,17.60
2023-10-11T08:12:54.931Z,16.92
2023-10-11T08:15:23.573Z,16.60
2023-10-11T08:17:50.030Z,18.33
2023-10-11T08:20:16.838Z,18.10
2023-10-11T08:22:43.311Z,18.15
2023-10-11T08:25:15.737Z,18.20
2023-10-11T08:27:42.514Z,18.52
2023-10-11T08:30:10.933Z,18.73
2023-10-11T08:32:39.571Z,19.55
2023-10-11T08:35:07.725Z,19.45
2023-10-11T08:37:34.414Z,18.58
2023-10-11T08:40:00.811Z,18.05
2023-10-11T08:42:32.301Z,20.02
2023-10-11T08:45:02.385Z,20.48
2023-10-11T08:47:30.996Z,19.97
2023-10-11T08:49:57.506Z,19.80
2023-10-11T08:52:24.496Z,20.10
2023-10-11T08:54:50.932Z,21.02
2023-10-11T08:57:27.093Z,20.40
2023-10-11T08:59:57.991Z,23.00
2023-10-11T09:02:28.367Z,22.77
2023-10-11T09:05:29.675Z,22.52
2023-10-11T09:07:56.596Z,22.75
2023-10-11T09:10:25.946Z,22.75
2023-10-11T09:12:57.348Z,22.38
2023-10-11T09:15:25.262Z,23.77
2023-10-11T09:18:10.440Z,22.42
2023-10-11T09:20:41.807Z,23.20
2023-10-11T09:23:09.709Z,24.17
2023-10-11T09:25:50.957Z,24.35
2023-10-11T09:28:18.109Z,20.63
2023-10-11T09:30:45.955Z,23.73
2023-10-11T09:33:19.243Z,23.75
2023-10-11T09:35:50.706Z,24.45
2023-10-11T09:38:20.626Z,25.25
2023-10-11T09:40:47.039Z,24.13
2023-10-11T09:43:19.540Z,24.00
2023-10-11T09:45:54.963Z,24.50
2023-10-11T09:48:23.908Z,24.73
2023-10-11T09:50:50.974Z,25.02
2023-10-11T09:53:17.305Z,24.27
2023-10-11T09:55:53.161Z,24.42
2023-10-11T09:58:30.108Z,26.33
2023-10-11T10:01:08.796Z,25.38
2023-10-11T10:03:39.894Z,24.80
2023-10-11T10:06:06.622Z,23.10
2023-10-11T10:08:33.272Z,24.08
2023-10-11T10:10:59.654Z,23.30
2023-10-11T10:13:26.266Z,23.75
2023-10-11T10:15:58.318Z,23.90
2023-10-11T10:18:25.874Z,22.25
2023-10-11T10:21:05.861Z,22.80
2023-10-11T10:23:43.432Z,23.63
2023-10-11T10:26:12.389Z,21.83
2023-10-11T10:28:44.112Z,22.00
2023-10-11T10:31:11.792Z,21.70
2023-10-11T10:33:42.526Z,21.38
2023-10-11T10:36:30.853Z,21.20
2023-10-11T10:39:09.982Z,16.60
2023-10-11T10:41:37.890Z,18.45
2023-10-11T10:44:07.293Z,19.00
2023-10-11T10:46:56.445Z,18.45
2023-10-11T10:49:24.367Z,16.45
2023-10-11T10:51:52.388Z,16.60
2023-10-11T10:54:23.255Z,15.98
2023-10-11T10:56:54.731Z,15.45
2023-10-11T10:59:23.209Z,15.05
2023-10-11T11:01:51.381Z,15.70
2023-10-11T11:04:21.727Z,14.60
2023-10-11T11:06:49.216Z,14.10
2023-10-11T11:09:16.768Z,14.48
2023-10-11T11:11:43.288Z,13.60
2023-10-11T11:14:10.623Z,13.65
2023-10-11T11:16:40.684Z,11.85
2023-10-11T11:19:17.529Z,12.65
2023-10-11T11:21:47.333Z,13.18
2023-10-11T11:24:19.314Z,12.83
2023-10-11T11:26:46.611Z,11.38
2023-10-11T11:29:32.158Z,11.10
2023-10-11T11:32:00.662Z,10.68
2023-10-11T11:34:35.098Z,10.18
2023-10-11T11:39:37.756Z,8.98
2023-10-11T11:42:09.169Z,9.48
2023-10-11T11:44:38.026Z,8.57
2023-10-11T11:47:07.420Z,8.18
2023-10-11T11:49:34.700Z,7.53
2023-10-11T11:52:02.022Z,7.80
2023-10-11T11:54:29.743Z,7.95
2023-10-11T11:56:57.122Z,7.60
2023-10-11T11:59:24.242Z,7.28
2023-10-11T12:01:54.906Z,6.97
2023-10-11T12:04:22.421Z,6.82
2023-10-11T12:06:49.434Z,6.88
2023-10-11T12:09:22.029Z,7.40
2023-10-11T12:11:54.696Z,8.40
2023-10-11T12:14:24.145Z,8.70
2023-10-11T12:16:50.589Z,8.32
2023-10-11T12:19:19.209Z,8.60
2023-10-11T12:21:45.682Z,8.93
2023-10-11T12:24:28.389Z,8.73
2023-10-11T12:26:59.282Z,8.55
2023-10-11T12:29:27.720Z,9.15
2023-10-11T12:31:54.824Z,9.02
2023-10-11T12:34:25.667Z,9.70
2023-10-11T12:36:55.736Z,8.75
2023-10-11T12:39:22.558Z,9.57
2023-10-11T12:41:50.407Z,9.25
2023-10-11T12:44:17.516Z,9.77
2023-10-11T12:46:44.123Z,9.77
2023-10-11T12:49:19.288Z,9.68
2023-10-11T12:51:46.528Z,10.02
2023-10-11T12:54:13.518Z,10.00
2023-10-11T12:56:39.936Z,10.43
2023-10-11T12:59:15.651Z,10.68
2023-10-11T13:01:51.599Z,10.50
2023-10-11T13:04:38.077Z,9.70
2023-10-11T13:07:15.161Z,9.18
2023-10-11T13:09:42.022Z,10.05
2023-10-11T13:12:09.540Z,11.23
2023-10-11T13:14:36.829Z,11.27
2023-10-11T13:17:09.233Z,11.52
2023-10-11T13:19:35.617Z,11.15
2023-10-11T13:22:10.616Z,12.73
2023-10-11T13:24:37.155Z,13.25
2023-10-11T13:27:04.981Z,12.77
2023-10-11T13:29:31.363Z,13.52
2023-10-11T13:31:58.499Z,13.43
2023-10-11T13:34:25.302Z,14.15
2023-10-11T13:36:52.685Z,13.85
2023-10-11T13:39:28.112Z,12.95
2023-10-11T13:42:04.521Z,13.95
2023-10-11T13:44:33.960Z,12.77
2023-10-11T13:47:00.392Z,12.75
2023-10-11T13:49:27.541Z,12.35
2023-10-11T13:51:54.604Z,12.20
2023-10-11T13:54:33.237Z,12.93
2023-10-11T13:57:00.532Z,13.45
2023-10-11T13:59:29.687Z,13.63
2023-10-11T14:01:58.931Z,12.63
2023-10-11T14:04:45.670Z,13.48
2023-10-11T14:07:21.153Z,14.23
2023-10-11T14:09:47.916Z,13.48
2023-10-11T14:12:19.182Z,13.05
2023-10-11T14:14:45.928Z,14.55
2023-10-11T14:17:16.676Z,13.60
2023-10-11T14:19:43.249Z,13.52
2023-10-11T14:22:09.607Z,14.23
2023-10-11T14:24:36.809Z,15.23
2023-10-11T14:27:03.397Z,13.93
2023-10-11T14:29:29.790Z,15.18
2023-10-11T14:31:57.583Z,13.65
2023-10-11T14:34:23.906Z,15.63
2023-10-11T14:36:51.875Z,14.50
2023-10-11T14:39:21.079Z,14.77
2023-10-11T14:41:49.648Z,15.05
2023-10-11T14:44:16.162Z,14.27
2023-10-11T14:46:42.761Z,15.05
2023-10-11T14:49:11.750Z,15.02
2023-10-11T14:51:39.985Z,15.20
2023-10-11T14:54:06.352Z,14.70
2023-10-11T14:56:34.442Z,15.98
2023-10-11T14:59:02.592Z,16.73
2023-10-11T15:01:29.001Z,16.33
2023-10-11T15:04:01.662Z,16.15
2023-10-11T15:06:28.154Z,16.15
2023-10-11T15:08:54.567Z,17.58
2023-10-11T15:11:21.815Z,17.55
2023-10-11T15:13:48.187Z,18.27
2023-10-11T15:16:15.720Z,18.35
2023-10-11T15:18:42.475Z,19.48
2023-10-11T15:21:09.397Z,19.33
2023-10-11T15:23:35.806Z,20.45
2023-10-11T15:26:04.407Z,20.77
2023-10-11T15:28:31.867Z,19.80
2023-10-11T15:31:04.273Z,20.88
2023-10-11T15:33:30.651Z,21.02
2023-10-11T15:35:57.567Z,20.90
2023-10-11T15:38:27.481Z,21.20
2023-10-11T15:40:59.517Z,20.67
2023-10-11T15:43:27.332Z,21.30
2023-10-11T15:45:53.940Z,21.13
2023-10-11T15:48:21.146Z,21.15
2023-10-11T15:50:47.585Z,21.23
2023-10-11T15:53:14.477Z,20.10
2023-10-11T15:55:44.415Z,21.40
2023-10-11T15:58:11.436Z,20.10
2023-10-11T16:00:38.677Z,17.58
2023-10-11T16:03:07.808Z,21.48
2023-10-11T16:05:34.169Z,21.73
2023-10-11T16:08:00.538Z,21.33
2023-10-11T16:10:27.143Z,21.98
2023-10-11T16:12:54.493Z,19.60
2023-10-11T16:15:20.882Z,21.52
2023-10-11T16:17:47.333Z,20.70
2023-10-11T16:20:13.875Z,22.10
2023-10-11T16:22:40.873Z,17.77
2023-10-11T16:25:11.038Z,19.35
2023-10-11T16:27:38.070Z,20.98
2023-10-11T16:30:06.560Z,18.55
2023-10-11T16:32:34.084Z,19.75
2023-10-11T16:35:04.085Z,21.52
2023-10-11T16:37:32.663Z,20.38
2023-10-11T16:39:59.302Z,21.40
2023-10-11T16:42:26.563Z,21.90
2023-10-11T16:44:55.220Z,21.45
2023-10-11T16:47:21.544Z,21.13
2023-10-11T16:49:49.035Z,21.00
2023-10-11T16:52:15.950Z,19.70
2023-10-11T16:54:42.952Z,21.25
2023-10-11T16:57:09.652Z,20.83
2023-10-11T16:59:36.747Z,22.27
2023-10-11T17:02:05.456Z,23.20
2023-10-11T17:04:33.027Z,22.92
2023-10-11T17:07:00.573Z,21.48
2023-10-11T17:09:26.927Z,21.50
2023-10-11T17:11:53.301Z,22.17
2023-10-11T17:14:20.007Z,20.98
2023-10-11T17:16:47.470Z,20.33
2023-10-11T17:19:14.430Z,20.83
2023-10-11T17:21:42.501Z,21.70
2023-10-11T17:24:12.817Z,20.77
2023-10-11T17:26:39.189Z,20.50
2023-10-11T17:29:07.017Z,21.42
2023-10-11T17:31:33.591Z,25.27
2023-10-11T17:34:00.088Z,23.25
2023-10-11T17:36:27.709Z,23.00
2023-10-11T17:38:54.358Z,23.17
2023-10-11T17:41:20.692Z,23.52
2023-10-11T17:43:48.619Z,21.67
2023-10-11T17:46:14.983Z,20.90
2023-10-11T17:48:46.379Z,19.92
2023-10-11T17:51:18.139Z,19.50
2023-10-11T17:53:44.584Z,17.70
2023-10-11T17:56:15.582Z,17.63
2023-10-11T17:58:42.017Z,17.13
2023-10-11T18:01:08.418Z,17.25
2023-10-11T18:03:35.475Z,16.80
2023-10-11T18:06:02.081Z,15.77
2023-10-11T18:08:28.378Z,15.57
2023-10-11T18:10:59.690Z,14.60
2023-10-11T18:13:26.130Z,14.13
2023-10-11T18:15:52.454Z,13.48
2023-10-11T18:18:21.822Z,13.98
2023-10-11T18:20:50.304Z,13.77
2023-10-11T18:23:16.633Z,13.07
2023-10-11T18:25:42.958Z,13.18
2023-10-11T18:28:09.330Z,12.45
2023-10-11T18:30:35.842Z,12.95
2023-10-11T18:33:02.847Z,12.25
2023-10-11T18:35:29.302Z,12.00
2023-10-11T18:37:55.774Z,11.73
2023-10-11T18:40:23.402Z,11.40
2023-10-11T18:42:56.444Z,11.43
2023-10-11T18:45:23.698Z,11.95
2023-10-11T18:47:53.850Z,11.13
2023-10-11T18:50:20.769Z,10.52
2023-10-11T18:52:47.800Z,10.40
2023-10-11T18:55:18.849Z,10.43
2023-10-11T18:57:45.590Z,10.43
2023-10-11T19:00:15.545Z,10.55
2023-10-11T19:02:43.071Z,10.55
2023-10-11T19:05:13.174Z,10.32
2023-10-11T19:07:39.828Z,10.10
2023-10-11T19:10:07.248Z,9.90
2023-10-11T19:12:36.416Z,10.90
2023-10-11T19:15:06.609Z,9.75
2023-10-11T19:17:36.227Z,10.82
2023-10-11T19:20:10.048Z,10.85
2023-10-11T19:22:41.632Z,11.18
2023-10-11T19:25:11.134Z,11.60
2023-10-11T19:27:38.443Z,9.93
2023-10-11T19:30:05.606Z,11.20
2023-10-11T19:32:33.363Z,10.95
2023-10-11T19:35:04.495Z,9.90
2023-10-11T19:37:30.760Z,9.55
2023-10-11T19:39:57.422Z,10.73
2023-10-11T19:42:23.910Z,9.70
2023-10-11T19:44:50.294Z,9.98
2023-10-11T19:49:44.310Z,9.70
2023-10-11T19:52:11.177Z,10.60
2023-10-11T19:54:39.298Z,10.95
2023-10-11T19:57:05.662Z,10.63
2023-10-11T19:59:33.641Z,11.15
2023-10-11T20:01:59.962Z,11.43
2023-10-11T20:04:26.680Z,11.32
2023-10-11T20:06:55.270Z,12.07
2023-10-11T20:09:24.392Z,11.82
2023-10-11T20:11:50.992Z,11.45
2023-10-11T20:14:17.608Z,11.88
2023-10-11T20:16:44.140Z,12.25
2023-10-11T20:19:12.998Z,12.32
2023-10-11T20:21:39.472Z,12.50
2023-10-11T20:24:07.812Z,12.43
2023-10-11T20:26:34.142Z,12.85
2023-10-11T20:29:01.189Z,11.60
2023-10-11T20:31:28.757Z,12.05
2023-10-11T20:33:58.269Z,11.40
2023-10-11T20:36:24.943Z,11.87
2023-10-11T20:38:51.320Z,12.38
2023-10-11T20:41:19.491Z,12.23
2023-10-11T20:43:46.232Z,12.60
2023-10-11T20:46:12.749Z,11.77
2023-10-11T20:48:39.269Z,11.02
2023-10-11T20:51:07.145Z,11.63
2023-10-11T20:53:35.208Z,11.85
2023-10-11T20:56:02.515Z,11.77
2023-10-11T20:58:31.720Z,12.38
2023-10-11T21:01:01.015Z,12.02
2023-10-11T21:03:27.699Z,12.93
2023-10-11T21:05:55.444Z,12.43
2023-10-11T21:08:26.350Z,11.18
2023-10-11T21:10:53.699Z,12.30
2023-10-11T21:13:22.465Z,11.77
2023-10-11T21:15:49.799Z,11.60
2023-10-11T21:18:16.639Z,12.05
2023-10-11T21:20:45.897Z,12.48
2023-10-11T21:23:19.238Z,11.63
2023-10-11T21:25:56.543Z,11.48
2023-10-11T21:28:25.041Z,11.35
2023-10-11T21:30:51.476Z,11.60
2023-10-11T21:33:18.822Z,11.70
2023-10-11T21:35:45.280Z,12.95
2023-10-11T21:38:11.751Z,10.75
2023-10-11T21:40:41.220Z,11.15
2023-10-11T21:43:08.326Z,11.18
2023-10-11T21:45:35.695Z,11.27
2023-10-11T21:48:02.203Z,11.65
2023-10-11T21:50:31.331Z,11.07
2023-10-11T21:53:00.681Z,11.18
2023-10-11T21:55:27.793Z,11.88
2023-10-11T21:57:54.322Z,11.20
2023-10-11T22:00:26.808Z,11.82
2023-10-11T22:02:54.037Z,11.80
2023-10-11T22:05:21.196Z,11.50
2023-10-11T22:07:48.056Z,12.35
2023-10-11T22:10:14.410Z,11.07
2023-10-11T22:12:45.175Z,11.88
2023-10-11T22:15:14.599Z,11.00
2023-10-11T22:17:46.814Z,10.88
2023-10-11T22:20:17.109Z,11.27
2023-10-11T22:22:48.785Z,11.93
2023-10-11T22:25:15.496Z,11.00
2023-10-11T22:27:44.874Z,11.15
2023-10-11T22:30:11.933Z,11.75
2023-10-11T22:32:38.414Z,11.43
2023-10-11T22:35:05.242Z,10.98
2023-10-11T22:37:36.178Z,11.70
2023-10-11T22:40:05.521Z,11.75
2023-10-11T22:42:32.542Z,12.15
2023-10-11T22:44:59.169Z,11.73
2023-10-11T22:47:25.468Z,11.93
2023-10-11T22:49:51.795Z,11.50
2023-10-11T22:52:20.068Z,12.13
2023-10-11T22:54:47.730Z,12.32
2023-10-11T22:57:14.115Z,12.18
2023-10-11T22:59:40.385Z,12.38
2023-10-11T23:02:08.781Z,12.60
2023-10-11T23:04:35.312Z,12.55
2023-10-11T23:07:01.728Z,12.48
2023-10-11T23:09:29.386Z,13.63
2023-10-11T23:11:56.370Z,13.55
2023-10-11T23:14:23.588Z,13.70
2023-10-11T23:16:52.980Z,14.27
2023-10-11T23:19:20.365Z,13.55
2023-10-11T23:21:48.125Z,14.88
2023-10-11T23:24:40.201Z,14.30
2023-10-11T23:27:06.652Z,14.00
2023-10-11T23:29:40.307Z,15.38
2023-10-11T23:32:10.864Z,15.00
2023-10-11T23:37:03.748Z,14.60
2023-10-11T23:39:36.445Z,16.13
2023-10-11T23:42:15.491Z,16.17
2023-10-11T23:44:45.029Z,16.77
2023-10-11T23:47:11.726Z,16.95
2023-10-11T23:49:42.632Z,17.50
2023-10-11T23:52:13.799Z,18.80
2023-10-11T23:54:41.089Z,19.08
2023-10-11T23:57:28.067Z,18.35
2023-10-11T23:59:59.682Z,19.45
